Terminal Aerodrome Forecast
Issued by NWS La Crosse, WI

Current Version | Previous Version | Text Only | Print | Product List | Glossary On
Versions: 1 2 3 4 5 6 7 8 9 10 11 12 13 14 15 16
000
FTUS43 KARX 241125
TAFRST
TAF
KRST 241125Z 2412/2512 20008KT P6SM BKN015 OVC035
      TEMPO 2412/2415 BKN008 OVC015
     FM241500 24008KT P6SM BKN018
     FM241900 30012KT P6SM SCT180
     FM250100 29005KT P6SM SCT250=

USA.gov is the U.S. government's official web portal to all federal, state and local government web resources and services.